Briefing drone pour Le chambon-feugerolles

Rechercher une autre localisation

Conditions de vol :


Nous sommes le : Lundi 23 mai 2022
Il est 15:49 UTC (17:49 LT)

Lever de soleil : 03:37 UTC (05:37 LT)
Coucher de soleil : 19:40 UTC (21:40 LT)

Météo

L'essentiel des conditions de vol

VIGILANCE MÉTÉO FRANCE - Loire (42)
Pas de vigilances particulieres
METAR de LFMH
LFMH 231530Z AUTO 26009KT 230V300 9999 FEW054/// BKN078/// OVC088/// ///CB 22/13 Q1007

Date d'émission: 23/05/2022
Heure d'émission: 15:30 UTC
Vent: 260° (variable du 230° au 300°) pour 9 KT (17 km/h)
Visibilité horizontale: > 10 km
Plafond :
- Peu de nuages à 5400ft (1646m)
- Nuages morcelés à 7800ft (2377m)
- Couvert à 8800ft (2682m)
Température: 22 °C
Point de rosée: 13 °C
Humidité: 57%
Pression (QNH): 1007 hPa
TAF de LFMH
LFMH 161901Z 1619/1712 CNL

Conditions prévues :

Heure d'émission : Bulletin éffectué le 16 à 19:00 UTC
Prévision : Valide du 16 a 19:00 UTC au 17 a 12:00 UTC
Nuages : à 0ft (0 m)
WEBCAM POUR LE CHAMBON-FEUGEROLLES

Réglementation

Voler en sécurité

CARTES AERONAUTIQUE 1/500.000
CARTES VAC (LFMH)
SUP AIP




Chargement des AIP...
NOTAM (LE CHAMBON-FEUGEROLLES + Terrain à proximité / FIR )




Chargement des NOTAMS...
CONTACT PREFECTURE 42


Avertissement : Les données mises à disposition sont indicatives. Oxygène Drone ne pourra être tenu responsable de dégâts causés aux biens et aux personnes.